createdAt,value
2022-10-17T00:00:22.695Z,20.8
2022-10-17T00:02:40.292Z,20.7
2022-10-17T00:04:57.787Z,20.8
2022-10-17T00:07:15.447Z,20.8
2022-10-17T00:09:33.075Z,21
2022-10-17T00:11:50.392Z,20.6
2022-10-17T00:14:07.887Z,20.6
2022-10-17T00:16:25.283Z,20.8
2022-10-17T00:18:42.774Z,20.6
2022-10-17T00:21:00.513Z,20.5
2022-10-17T00:23:17.716Z,20.9
2022-10-17T00:25:35.331Z,20.9
2022-10-17T00:27:52.814Z,20.7
2022-10-17T00:30:10.727Z,20.8
2022-10-17T00:32:28.168Z,20.6
2022-10-17T00:34:45.368Z,20.6
2022-10-17T00:37:02.889Z,20.4
2022-10-17T00:39:20.371Z,20.6
2022-10-17T00:41:37.872Z,20.6
2022-10-17T00:43:55.412Z,20.6
2022-10-17T00:46:12.868Z,20.8
2022-10-17T00:48:30.469Z,20.7
2022-10-17T00:50:47.996Z,21.1
2022-10-17T00:53:05.706Z,20.6
2022-10-17T00:55:22.991Z,20.7
2022-10-17T00:57:40.531Z,20.4
2022-10-17T00:59:57.974Z,20.6
2022-10-17T01:02:34.116Z,20.5
2022-10-17T01:04:51.710Z,20.4
2022-10-17T01:07:09.298Z,20.5
2022-10-17T01:09:26.625Z,20.6
2022-10-17T01:11:44.086Z,20.5
2022-10-17T01:14:01.560Z,20.3
2022-10-17T01:16:19.080Z,20.4
2022-10-17T01:18:36.597Z,20.4
2022-10-17T01:20:54.101Z,20.4
2022-10-17T01:23:11.620Z,20.5
2022-10-17T01:25:29.009Z,20.2
2022-10-17T01:27:46.685Z,20.4
2022-10-17T01:30:04.106Z,20.8
2022-10-17T01:32:21.529Z,20.5
2022-10-17T01:34:39.061Z,20.3
2022-10-17T01:36:56.824Z,20.4
2022-10-17T01:39:14.100Z,20.8
2022-10-17T01:41:31.574Z,20.7
2022-10-17T01:43:49.102Z,20.4
2022-10-17T01:46:06.725Z,20.6
2022-10-17T01:48:24.148Z,20.4
2022-10-17T01:50:41.702Z,20.3
2022-10-17T01:52:59.168Z,20.3
2022-10-17T01:55:17.348Z,20.3
2022-10-17T01:57:34.695Z,20.6
2022-10-17T01:59:52.303Z,20.4
2022-10-17T02:02:09.281Z,20.6
2022-10-17T02:04:26.831Z,20.6
2022-10-17T02:06:44.279Z,20.5
2022-10-17T02:09:02.243Z,20.5
2022-10-17T02:11:19.310Z,20.7
2022-10-17T02:13:36.705Z,20.4
2022-10-17T02:15:54.412Z,20.4
2022-10-17T02:18:11.835Z,20.4
2022-10-17T02:20:29.642Z,20.4
2022-10-17T02:22:47.483Z,20.8
2022-10-17T02:25:04.939Z,20.8
2022-10-17T02:27:22.663Z,20.7
2022-10-17T02:29:40.013Z,20.8
2022-10-17T02:31:57.795Z,20.6
2022-10-17T02:34:15.423Z,20.6
2022-10-17T02:36:33.200Z,20.5
2022-10-17T02:38:50.677Z,20.9
2022-10-17T02:41:09.041Z,20.7
2022-10-17T02:43:26.187Z,20.6
2022-10-17T02:45:43.980Z,20.6
2022-10-17T02:48:01.523Z,20.6
2022-10-17T02:50:19.240Z,20.5
2022-10-17T02:52:36.798Z,20.4
2022-10-17T02:54:54.403Z,20.6
2022-10-17T02:57:12.122Z,20.4
2022-10-17T02:59:29.740Z,20.4
2022-10-17T03:01:47.330Z,20.5
2022-10-17T03:04:04.893Z,20.4
2022-10-17T03:06:22.649Z,20.4
2022-10-17T03:08:40.459Z,20.6
2022-10-17T03:10:57.957Z,20.8
2022-10-17T03:13:15.484Z,20.8
2022-10-17T03:15:17.779Z,20.4
2022-10-17T03:15:33.020Z,20.5
2022-10-17T03:17:50.787Z,20.4
2022-10-17T03:20:08.347Z,20.8
2022-10-17T03:22:26.229Z,20.7
2022-10-17T03:24:43.734Z,20.8
2022-10-17T03:27:01.653Z,20.9
2022-10-17T03:29:19.161Z,20.6
2022-10-17T03:31:37.100Z,20.8
2022-10-17T03:33:54.455Z,20.4
2022-10-17T03:36:11.951Z,20.4
2022-10-17T03:38:30.323Z,20.8
2022-10-17T03:40:47.323Z,20.4
2022-10-17T03:43:05.099Z,20.6
2022-10-17T03:45:22.614Z,20.5
2022-10-17T03:47:40.437Z,20.5
2022-10-17T03:49:58.014Z,20.5
2022-10-17T03:52:15.789Z,20.4
2022-10-17T03:54:33.424Z,20.4
2022-10-17T03:56:51.013Z,20.6
2022-10-17T03:59:08.737Z,20.8
2022-10-17T04:01:26.170Z,20.8
2022-10-17T04:03:44.529Z,20.5
2022-10-17T04:06:01.452Z,20.6
2022-10-17T04:08:19.215Z,20.6
2022-10-17T04:10:36.738Z,21
2022-10-17T04:12:54.564Z,20.6
2022-10-17T04:15:12.054Z,20.7
2022-10-17T04:17:31.538Z,20.4
2022-10-17T04:19:47.419Z,20.6
2022-10-17T04:22:04.906Z,20.6
2022-10-17T04:24:22.777Z,20.6
2022-10-17T04:26:40.397Z,20.7
2022-10-17T04:28:58.154Z,20.2
2022-10-17T04:31:15.792Z,20.7
2022-10-17T04:33:33.509Z,20.8
2022-10-17T04:35:51.069Z,20.4
2022-10-17T04:38:08.993Z,20.8
2022-10-17T04:40:26.852Z,20.4
2022-10-17T04:42:44.560Z,20.8
2022-10-17T04:45:02.111Z,21.5
2022-10-17T04:47:19.812Z,21.6
2022-10-17T04:49:37.724Z,20.7
2022-10-17T04:51:55.312Z,20.5
2022-10-17T04:54:13.111Z,20.3
2022-10-17T04:56:30.638Z,20.9
2022-10-17T04:58:33.219Z,20.3
2022-10-17T04:58:48.434Z,20.2
2022-10-17T05:01:06.150Z,20.6
2022-10-17T05:03:24.096Z,20.4
2022-10-17T05:05:41.475Z,20.9
2022-10-17T05:07:59.014Z,20.4
2022-10-17T05:10:16.941Z,20.6
2022-10-17T05:12:34.363Z,20.5
2022-10-17T05:14:51.958Z,20.5
2022-10-17T05:17:09.618Z,20.4
2022-10-17T05:19:27.880Z,20.3
2022-10-17T05:21:30.488Z,20.4
2022-10-17T05:21:45.379Z,20.4
2022-10-17T05:24:05.066Z,20.5
2022-10-17T05:26:21.654Z,20.3
2022-10-17T05:28:40.427Z,20.4
2022-10-17T05:30:57.875Z,20.6
2022-10-17T05:33:15.507Z,20.1
2022-10-17T05:35:33.187Z,20.8
2022-10-17T05:37:50.767Z,20.4
2022-10-17T05:40:08.645Z,20.4
2022-10-17T05:42:26.464Z,20.7
2022-10-17T05:44:44.010Z,20.3
2022-10-17T05:47:01.657Z,20.6
2022-10-17T05:49:32.431Z,20.8
2022-10-17T05:51:37.371Z,20.3
2022-10-17T05:53:39.769Z,20.6
2022-10-17T05:53:54.982Z,20.4
2022-10-17T05:56:12.700Z,20.6
2022-10-17T05:58:49.073Z,20.4
2022-10-17T06:00:54.700Z,20.4
2022-10-17T06:03:12.448Z,20.5
2022-10-17T06:05:30.115Z,20.4
2022-10-17T06:07:47.643Z,20.4
2022-10-17T06:10:05.207Z,20.8
2022-10-17T06:12:23.222Z,20.6
2022-10-17T06:14:40.641Z,20.7
2022-10-17T06:16:58.337Z,20.4
2022-10-17T06:19:15.950Z,20.9
2022-10-17T06:21:18.439Z,20.8
2022-10-17T06:21:33.876Z,20.4
2022-10-17T06:23:51.446Z,20.4
2022-10-17T06:26:09.248Z,20.4
2022-10-17T06:28:26.954Z,20.5
2022-10-17T06:30:44.550Z,20.5
2022-10-17T06:33:02.164Z,20.4
2022-10-17T06:35:19.827Z,20.9
2022-10-17T06:37:37.753Z,20.6
2022-10-17T06:39:55.157Z,20.5
2022-10-17T06:42:12.722Z,21
2022-10-17T06:44:30.270Z,20.6
2022-10-17T06:46:47.769Z,20.9
2022-10-17T06:49:05.366Z,20.8
2022-10-17T06:51:23.138Z,20.8
2022-10-17T06:53:41.281Z,21
2022-10-17T06:55:58.455Z,20.8
2022-10-17T06:58:16.282Z,20.7
2022-10-17T07:00:33.861Z,20.8
2022-10-17T07:02:51.293Z,20.8
2022-10-17T07:05:08.822Z,20.6
2022-10-17T07:07:26.785Z,20.9
2022-10-17T07:09:43.936Z,20.8
2022-10-17T07:12:01.389Z,20.9
2022-10-17T07:14:19.077Z,21.2
2022-10-17T07:16:36.626Z,21.1
2022-10-17T07:18:54.282Z,20.9
2022-10-17T07:21:11.919Z,20.8
2022-10-17T07:23:29.707Z,20.9
2022-10-17T07:25:46.703Z,20.9
2022-10-17T07:28:04.690Z,21
2022-10-17T07:30:21.939Z,20.9
2022-10-17T07:32:39.345Z,20.9
2022-10-17T07:34:56.749Z,21
2022-10-17T07:37:14.394Z,21.1
2022-10-17T07:39:31.972Z,21
2022-10-17T07:41:49.488Z,21.3
2022-10-17T07:44:07.274Z,21.4
2022-10-17T07:46:24.696Z,21.3
2022-10-17T07:48:42.196Z,21
2022-10-17T07:50:59.449Z,21
2022-10-17T07:53:16.939Z,21.3
2022-10-17T07:55:34.250Z,21.3
2022-10-17T07:57:51.632Z,21.4
2022-10-17T08:00:08.935Z,21.4
2022-10-17T08:02:26.852Z,21.6
2022-10-17T08:04:43.884Z,21.4
2022-10-17T08:07:11.852Z,21.5
2022-10-17T08:09:22.721Z,21.3
2022-10-17T08:11:39.927Z,21.3
2022-10-17T08:13:57.238Z,21.4
2022-10-17T08:15:59.291Z,21.4
2022-10-17T08:18:31.817Z,21.6
2022-10-17T08:20:49.007Z,21.3
2022-10-17T08:23:06.292Z,21.1
2022-10-17T08:25:23.454Z,21.3
2022-10-17T08:27:40.870Z,21.3
2022-10-17T08:32:15.692Z,21.6
2022-10-17T08:34:33.003Z,21.3
2022-10-17T08:39:08.459Z,21
2022-10-17T08:46:00.120Z,21.2
2022-10-17T08:50:35.065Z,21.3
2022-10-17T08:52:52.519Z,21.2
2022-10-17T08:54:54.682Z,21.3
2022-10-17T08:55:09.908Z,20.9
2022-10-17T08:57:36.799Z,21
2022-10-17T08:59:54.288Z,21
2022-10-17T09:02:11.850Z,21
2022-10-17T09:04:29.357Z,21.2
2022-10-17T09:06:46.690Z,21
2022-10-17T09:09:04.079Z,21.1
2022-10-17T09:11:21.701Z,21.1
2022-10-17T09:13:39.262Z,20.9
2022-10-17T09:15:41.410Z,21.2
2022-10-17T09:15:56.752Z,20.9
2022-10-17T09:18:15.204Z,21.3
2022-10-17T09:20:32.106Z,21
2022-10-17T09:22:49.119Z,21
2022-10-17T09:25:06.705Z,21.1
2022-10-17T09:32:02.643Z,21
2022-10-17T09:34:41.611Z,21.2
2022-10-17T09:41:47.563Z,21.2
2022-10-17T09:44:05.156Z,21.3
2022-10-17T09:46:22.731Z,21.3
2022-10-17T09:48:40.487Z,21.1
2022-10-17T09:51:02.696Z,21.4
2022-10-17T09:53:19.199Z,21.1
2022-10-17T09:55:36.692Z,21.2
2022-10-17T09:57:54.230Z,21.3
2022-10-17T10:00:11.815Z,21.2
2022-10-17T10:02:29.630Z,20.9
2022-10-17T10:05:03.576Z,21.3
2022-10-17T10:07:08.108Z,21.3
2022-10-17T10:09:25.647Z,21.3
2022-10-17T10:11:43.293Z,21.3
2022-10-17T10:16:18.458Z,21.3
2022-10-17T10:18:35.952Z,21.3
2022-10-17T10:20:53.759Z,21.5
2022-10-17T10:23:11.187Z,21.2
2022-10-17T10:25:28.744Z,21.3
2022-10-17T10:30:04.016Z,21.3
2022-10-17T10:32:21.424Z,21.2
2022-10-17T10:34:38.915Z,21.4
2022-10-17T10:36:56.746Z,21.3
2022-10-17T10:39:14.248Z,21.4
2022-10-17T10:41:31.821Z,21.3
2022-10-17T10:43:49.324Z,21.4
2022-10-17T10:46:19.830Z,21.3
2022-10-17T10:48:37.078Z,21.3
2022-10-17T10:50:54.653Z,21.3
2022-10-17T10:53:12.534Z,21.3
2022-10-17T10:55:29.847Z,21.4
2022-10-17T11:02:22.697Z,21.2
2022-10-17T11:04:40.288Z,21.2
2022-10-17T11:06:57.890Z,21.4
2022-10-17T11:09:15.526Z,21.1
2022-10-17T11:11:32.978Z,21.3
2022-10-17T11:13:51.852Z,21.2
2022-10-17T11:16:08.103Z,21.2
2022-10-17T11:18:25.777Z,21.3
2022-10-17T11:20:43.602Z,21.1
2022-10-17T11:23:01.024Z,21.3
2022-10-17T11:25:18.637Z,21.2
2022-10-17T11:27:36.433Z,21.3
2022-10-17T11:32:11.887Z,21.1
2022-10-17T11:34:29.453Z,21.3
2022-10-17T11:36:47.268Z,21.2
2022-10-17T11:39:05.133Z,21.3
2022-10-17T11:41:22.750Z,21.2
2022-10-17T11:43:40.397Z,21.2
2022-10-17T11:45:58.226Z,21.2
2022-10-17T11:48:15.855Z,21.3
2022-10-17T11:54:10.930Z,21.4
2022-10-17T11:56:28.597Z,21.3
2022-10-17T11:58:46.297Z,21.3
2022-10-17T12:01:03.859Z,21.2
2022-10-17T12:03:21.328Z,21.1
2022-10-17T12:10:14.178Z,21
2022-10-17T12:12:32.483Z,21.3
2022-10-17T12:17:06.988Z,21.1
2022-10-17T12:19:24.555Z,21.3
2022-10-17T12:21:43.409Z,21.2
2022-10-17T12:23:59.834Z,21.2
2022-10-17T12:26:04.555Z,21.1
2022-10-17T12:37:58.577Z,21
2022-10-17T12:40:14.976Z,21.2
2022-10-17T12:42:32.383Z,21.4
2022-10-17T12:46:52.287Z,21
2022-10-17T12:47:07.590Z,20.9
2022-10-17T12:49:25.179Z,21.2
2022-10-17T12:51:59.632Z,21
2022-10-17T12:54:17.240Z,21.3
2022-10-17T12:56:35.553Z,21
2022-10-17T12:58:53.080Z,21.2
2022-10-17T13:01:25.102Z,20.9
2022-10-17T13:03:42.874Z,21.1
2022-10-17T13:06:00.433Z,21
2022-10-17T13:08:18.690Z,21.2
2022-10-17T13:10:35.718Z,21.2
2022-10-17T13:12:53.259Z,21.1
2022-10-17T13:17:28.443Z,21.3
2022-10-17T13:19:46.399Z,21.1
2022-10-17T13:22:06.664Z,21.1
2022-10-17T13:24:21.199Z,21
2022-10-17T13:26:38.853Z,21
2022-10-17T13:28:56.512Z,21.1
2022-10-17T13:31:14.182Z,21.3
2022-10-17T13:33:31.581Z,21.2
2022-10-17T13:36:01.648Z,21
2022-10-17T13:38:04.281Z,21.2
2022-10-17T13:41:30.377Z,21
2022-10-17T13:46:02.223Z,21.1
2022-10-17T13:48:25.141Z,21
2022-10-17T13:50:50.305Z,20.9
2022-10-17T13:53:07.860Z,21.1
2022-10-17T13:55:25.454Z,20.9
2022-10-17T13:57:50.494Z,20.9
2022-10-17T14:00:09.873Z,21
2022-10-17T14:02:25.579Z,21
2022-10-17T14:09:59.086Z,21.1
2022-10-17T14:12:16.562Z,20.9
2022-10-17T14:14:46.369Z,21.1
2022-10-17T14:16:59.099Z,21.1
2022-10-17T14:19:16.849Z,20.9
2022-10-17T14:22:31.844Z,21
2022-10-17T14:27:14.242Z,21
2022-10-17T14:29:32.564Z,21
2022-10-17T14:31:59.321Z,20.9
2022-10-17T14:34:16.814Z,21
2022-10-17T14:36:49.082Z,21
2022-10-17T14:39:09.537Z,21.1
2022-10-17T14:41:44.103Z,21
2022-10-17T14:44:00.835Z,21.3
2022-10-17T14:46:18.873Z,20.6
2022-10-17T14:48:33.452Z,21
2022-10-17T14:48:48.744Z,20.4
2022-10-17T14:51:06.308Z,21
2022-10-17T14:53:33.149Z,21.3
2022-10-17T14:55:50.659Z,20.9
2022-10-17T14:58:08.144Z,20.9
2022-10-17T15:00:41.523Z,20.7
2022-10-17T15:02:59.087Z,20.9
2022-10-17T15:05:16.538Z,20.9
2022-10-17T15:07:34.093Z,21
2022-10-17T15:09:51.431Z,20.9
2022-10-17T15:12:08.806Z,20.7
2022-10-17T15:14:33.053Z,21
2022-10-17T15:16:50.579Z,21
2022-10-17T15:19:08.196Z,21.2
2022-10-17T15:21:19.674Z,21
2022-10-17T15:21:38.351Z,20.8
2022-10-17T15:23:45.471Z,21.3
2022-10-17T15:26:03.159Z,21.1
2022-10-17T15:28:05.357Z,21
2022-10-17T15:28:20.639Z,21
2022-10-17T15:30:38.243Z,21
2022-10-17T15:32:55.927Z,20.4
2022-10-17T15:35:13.078Z,21.1
2022-10-17T15:37:30.871Z,20.9
2022-10-17T15:39:48.078Z,21
2022-10-17T15:42:05.626Z,21
2022-10-17T15:44:23.833Z,20.9
2022-10-17T15:46:40.437Z,20.9
2022-10-17T15:48:57.756Z,20.7
2022-10-17T15:51:15.241Z,20.8
2022-10-17T15:53:32.615Z,20.6
2022-10-17T15:55:34.814Z,20.8
2022-10-17T15:55:50.171Z,20.7
2022-10-17T15:58:07.452Z,20.8
2022-10-17T16:00:25.010Z,20.9
2022-10-17T16:02:42.252Z,20.6
2022-10-17T16:04:59.606Z,20.8
2022-10-17T16:07:16.999Z,20.8
2022-10-17T16:09:34.428Z,20.9
2022-10-17T16:11:51.938Z,20.6
2022-10-17T16:14:09.288Z,20.8
2022-10-17T16:16:26.435Z,20.8
2022-10-17T16:18:43.889Z,20.8
2022-10-17T16:21:01.223Z,20.7
2022-10-17T16:23:18.602Z,20.9
2022-10-17T16:25:36.677Z,20.7
2022-10-17T16:27:53.906Z,20.8
2022-10-17T16:29:56.104Z,21.1
2022-10-17T16:30:11.762Z,20.8
2022-10-17T16:32:29.231Z,21.3
2022-10-17T16:37:04.051Z,20.9
2022-10-17T16:39:21.827Z,21
2022-10-17T16:41:39.620Z,20.9
2022-10-17T16:43:57.222Z,20.9
2022-10-17T16:46:15.028Z,20.9
2022-10-17T16:48:32.367Z,20.9
2022-10-17T16:50:34.934Z,21
2022-10-17T16:50:50.071Z,20.8
2022-10-17T16:53:07.854Z,21.1
2022-10-17T16:55:25.494Z,21
2022-10-17T17:00:00.804Z,20.7
2022-10-17T17:02:20.410Z,20.9
2022-10-17T17:04:36.444Z,21.1
2022-10-17T17:06:54.020Z,20.8
2022-10-17T17:09:11.911Z,20.9
2022-10-17T17:11:29.612Z,20.9
2022-10-17T17:13:47.476Z,21
2022-10-17T17:16:05.573Z,20.9
2022-10-17T17:18:28.121Z,20.8
2022-10-17T17:20:45.735Z,21
2022-10-17T17:23:03.449Z,20.9
2022-10-17T17:25:21.030Z,20.8
2022-10-17T17:27:38.618Z,21.1
2022-10-17T17:29:56.289Z,20.7
2022-10-17T17:32:13.847Z,20.9
2022-10-17T17:34:31.578Z,21
2022-10-17T17:36:49.202Z,20.9
2022-10-17T17:39:06.975Z,20.6
2022-10-17T17:41:24.556Z,20.7
2022-10-17T17:43:42.143Z,20.9
2022-10-17T17:45:59.852Z,20.8
2022-10-17T17:48:18.103Z,20.9
2022-10-17T17:50:35.164Z,20.8
2022-10-17T17:52:52.762Z,20.9
2022-10-17T17:55:10.351Z,20.8
2022-10-17T17:59:45.682Z,20.8
2022-10-17T18:01:48.151Z,21.1
2022-10-17T18:02:03.733Z,20.8
2022-10-17T18:04:21.092Z,20.8
2022-10-17T18:06:38.729Z,20.9
2022-10-17T18:08:56.252Z,20.8
2022-10-17T18:11:15.921Z,20.8
2022-10-17T18:13:31.567Z,20.8
2022-10-17T18:15:49.189Z,20.8
2022-10-17T18:18:06.633Z,20.8
2022-10-17T18:20:24.385Z,21
2022-10-17T18:22:41.823Z,20.8
2022-10-17T18:24:59.551Z,20.9
2022-10-17T18:27:17.259Z,20.9
2022-10-17T18:29:35.101Z,20.8
2022-10-17T18:31:52.728Z,20.9
2022-10-17T18:34:10.105Z,20.6
2022-10-17T18:36:27.649Z,20.8
2022-10-17T18:38:45.402Z,20.9
2022-10-17T18:41:03.732Z,20.9
2022-10-17T18:43:20.675Z,20.8
2022-10-17T18:45:38.256Z,20.8
2022-10-17T18:47:56.205Z,20.9
2022-10-17T18:50:13.522Z,20.9
2022-10-17T18:52:31.087Z,20.8
2022-10-17T18:54:48.767Z,20.9
2022-10-17T18:57:06.662Z,20.7
2022-10-17T18:59:24.147Z,21.1
2022-10-17T19:01:42.179Z,20.8
2022-10-17T19:03:59.701Z,20.8
2022-10-17T19:06:17.360Z,20.7
2022-10-17T19:08:35.480Z,20.8
2022-10-17T19:10:52.875Z,20.8
2022-10-17T19:15:28.545Z,20.9
2022-10-17T19:17:46.325Z,20.9
2022-10-17T19:20:03.914Z,20.9
2022-10-17T19:22:21.689Z,20.9
2022-10-17T19:24:23.980Z,21
2022-10-17T19:24:39.349Z,20.8
2022-10-17T19:26:57.288Z,20.8
2022-10-17T19:29:14.882Z,20.9
2022-10-17T19:31:32.622Z,20.9
2022-10-17T19:33:50.344Z,20.9
2022-10-17T19:36:08.114Z,20.8
2022-10-17T19:38:25.979Z,21.3
2022-10-17T19:40:43.739Z,20.8
2022-10-17T19:43:01.626Z,20.9
2022-10-17T19:45:19.377Z,20.9
2022-10-17T19:47:37.035Z,20.9
2022-10-17T19:49:54.803Z,20.9
2022-10-17T19:52:12.589Z,20.9
2022-10-17T19:54:30.189Z,20.9
2022-10-17T19:56:48.185Z,20.8
2022-10-17T19:59:05.748Z,20.8
2022-10-17T20:01:23.532Z,20.9
2022-10-17T20:03:41.322Z,21.1
2022-10-17T20:06:07.300Z,20.8
2022-10-17T20:10:42.158Z,20.9
2022-10-17T20:12:59.799Z,20.8
2022-10-17T20:15:17.528Z,20.9
2022-10-17T20:19:53.112Z,20.8
2022-10-17T20:22:10.471Z,20.7
2022-10-17T20:27:10.707Z,20.8
2022-10-17T20:29:28.221Z,20.9
2022-10-17T20:31:45.826Z,20.8
2022-10-17T20:34:03.426Z,21.1
2022-10-17T20:36:21.052Z,20.9
2022-10-17T20:38:23.431Z,21
2022-10-17T20:38:38.648Z,21.8
2022-10-17T20:41:13.350Z,21.2
2022-10-17T20:43:31.160Z,20.9
2022-10-17T20:45:59.159Z,20.8
2022-10-17T20:48:28.865Z,20.8
2022-10-17T20:50:46.782Z,20.7
2022-10-17T20:53:24.747Z,20.6
2022-10-17T20:55:37.201Z,20.6
2022-10-17T20:57:54.211Z,20.3
2022-10-17T21:00:11.819Z,20.7
2022-10-17T21:02:29.500Z,20.7
2022-10-17T21:05:11.670Z,20.7
2022-10-17T21:07:29.680Z,20.5
2022-10-17T21:09:47.060Z,20.4
2022-10-17T21:12:09.641Z,20.5
2022-10-17T21:14:27.462Z,20.4
2022-10-17T21:16:45.127Z,20.6
2022-10-17T21:19:02.946Z,20.6
2022-10-17T21:21:20.852Z,20.8
2022-10-17T21:25:55.953Z,21
2022-10-17T21:28:13.877Z,20.8
2022-10-17T21:30:31.635Z,20.6
2022-10-17T21:33:05.414Z,20.5
2022-10-17T21:35:23.034Z,20.6
2022-10-17T21:37:40.719Z,20.7
2022-10-17T21:39:58.595Z,20.5
2022-10-17T21:42:16.112Z,20.6
2022-10-17T21:44:33.855Z,20.4
2022-10-17T21:46:51.626Z,20.6
2022-10-17T21:49:22.451Z,20.9
2022-10-17T21:51:40.020Z,20.8
2022-10-17T21:53:42.417Z,20.6
2022-10-17T21:53:57.750Z,20.5
2022-10-17T21:56:15.200Z,20.8
2022-10-17T21:58:32.770Z,20.8
2022-10-17T22:00:50.293Z,20.9
2022-10-17T22:03:07.915Z,21
2022-10-17T22:05:25.471Z,20.8
2022-10-17T22:08:04.393Z,20.8
2022-10-17T22:10:22.016Z,20.6
2022-10-17T22:12:39.870Z,20.6
2022-10-17T22:14:57.470Z,20.6
2022-10-17T22:17:15.210Z,20.6
2022-10-17T22:19:32.952Z,20.7
2022-10-17T22:21:50.593Z,20.7
2022-10-17T22:24:08.463Z,20.4
2022-10-17T22:26:26.117Z,20.7
2022-10-17T22:28:43.827Z,20.3
2022-10-17T22:31:01.455Z,20.4
2022-10-17T22:35:36.783Z,20.8
2022-10-17T22:37:54.563Z,20.7
2022-10-17T22:40:11.942Z,20.8
2022-10-17T22:42:29.557Z,20.7
2022-10-17T22:47:04.590Z,20.6
2022-10-17T22:49:22.206Z,20.6
2022-10-17T22:51:39.973Z,20.6
2022-10-17T22:53:57.555Z,20.3
2022-10-17T22:56:15.192Z,20.6
2022-10-17T22:58:32.830Z,20.7
2022-10-17T23:00:50.413Z,20.8
2022-10-17T23:03:08.220Z,20.7
2022-10-17T23:05:25.763Z,20.6
2022-10-17T23:07:43.544Z,20.6
2022-10-17T23:10:01.031Z,20.3
2022-10-17T23:12:18.605Z,20.6
2022-10-17T23:14:36.151Z,20.6
2022-10-17T23:16:53.553Z,20.5
2022-10-17T23:19:11.185Z,20.6
2022-10-17T23:21:29.327Z,20.6
2022-10-17T23:23:47.263Z,20.3
2022-10-17T23:26:04.906Z,20.6
2022-10-17T23:28:22.739Z,20.5
2022-10-17T23:30:40.519Z,20.4
2022-10-17T23:32:58.030Z,20.4
2022-10-17T23:35:15.620Z,20.3
2022-10-17T23:37:18.157Z,20.5
2022-10-17T23:37:33.619Z,20.4
2022-10-17T23:39:50.972Z,20.6
2022-10-17T23:42:08.675Z,20.8
2022-10-17T23:44:26.208Z,20.7
2022-10-17T23:46:44.135Z,20.7
2022-10-17T23:49:01.627Z,20.7
2022-10-17T23:51:19.490Z,20.4
2022-10-17T23:53:36.991Z,20.8
2022-10-17T23:55:54.670Z,20.7
2022-10-17T23:58:12.331Z,20.8
